sensor_id;sensor_type;location;lat;lon;timestamp;P1;durP1;ratioP1;P2;durP2;ratioP2
36593;SDS011;22603;47.900;8.146;2023-11-21T00:01:36;6.00;;;0.70;;
36593;SDS011;22603;47.900;8.146;2023-11-21T00:04:22;3.60;;;0.93;;
36593;SDS011;22603;47.900;8.146;2023-11-21T00:07:09;0.63;;;0.60;;
36593;SDS011;22603;47.900;8.146;2023-11-21T00:09:56;0.50;;;0.50;;
36593;SDS011;22603;47.900;8.146;2023-11-21T00:12:43;2.77;;;0.80;;
36593;SDS011;22603;47.900;8.146;2023-11-21T00:15:32;2.40;;;0.80;;
36593;SDS011;22603;47.900;8.146;2023-11-21T00:18:20;0.40;;;0.40;;
36593;SDS011;22603;47.900;8.146;2023-11-21T00:21:07;0.33;;;0.33;;
36593;SDS011;22603;47.900;8.146;2023-11-21T00:23:54;0.30;;;0.30;;
36593;SDS011;22603;47.900;8.146;2023-11-21T00:26:41;1.47;;;0.50;;
36593;SDS011;22603;47.900;8.146;2023-11-21T00:29:28;0.40;;;0.40;;
36593;SDS011;22603;47.900;8.146;2023-11-21T00:32:14;0.40;;;0.40;;
36593;SDS011;22603;47.900;8.146;2023-11-21T00:35:02;0.30;;;0.30;;
36593;SDS011;22603;47.900;8.146;2023-11-21T00:37:51;1.10;;;0.47;;
36593;SDS011;22603;47.900;8.146;2023-11-21T00:40:38;0.30;;;0.30;;
36593;SDS011;22603;47.900;8.146;2023-11-21T00:43:24;0.40;;;0.40;;
36593;SDS011;22603;47.900;8.146;2023-11-21T00:46:11;2.07;;;0.73;;
36593;SDS011;22603;47.900;8.146;2023-11-21T00:48:59;1.53;;;0.73;;
36593;SDS011;22603;47.900;8.146;2023-11-21T00:51:47;3.03;;;1.00;;
36593;SDS011;22603;47.900;8.146;2023-11-21T00:54:33;1.43;;;0.80;;
36593;SDS011;22603;47.900;8.146;2023-11-21T00:57:20;1.27;;;0.50;;
36593;SDS011;22603;47.900;8.146;2023-11-21T01:00:07;1.27;;;0.60;;
36593;SDS011;22603;47.900;8.146;2023-11-21T01:02:58;2.77;;;0.43;;
36593;SDS011;22603;47.900;8.146;2023-11-21T01:05:45;2.17;;;0.80;;
36593;SDS011;22603;47.900;8.146;2023-11-21T01:08:35;0.47;;;0.47;;
36593;SDS011;22603;47.900;8.146;2023-11-21T01:11:22;0.37;;;0.37;;
36593;SDS011;22603;47.900;8.146;2023-11-21T01:14:12;0.20;;;0.20;;
36593;SDS011;22603;47.900;8.146;2023-11-21T01:16:58;6.43;;;0.40;;
36593;SDS011;22603;47.900;8.146;2023-11-21T01:19:45;0.47;;;0.33;;
36593;SDS011;22603;47.900;8.146;2023-11-21T01:22:32;0.20;;;0.20;;
36593;SDS011;22603;47.900;8.146;2023-11-21T01:25:21;0.20;;;0.20;;
36593;SDS011;22603;47.900;8.146;2023-11-21T01:28:08;1.57;;;0.30;;
36593;SDS011;22603;47.900;8.146;2023-11-21T01:30:55;0.20;;;0.20;;
36593;SDS011;22603;47.900;8.146;2023-11-21T01:33:43;0.30;;;0.30;;
36593;SDS011;22603;47.900;8.146;2023-11-21T01:36:30;0.20;;;0.20;;
36593;SDS011;22603;47.900;8.146;2023-11-21T01:39:18;0.40;;;0.30;;
36593;SDS011;22603;47.900;8.146;2023-11-21T01:42:10;0.40;;;0.40;;
36593;SDS011;22603;47.900;8.146;2023-11-21T01:44:58;0.33;;;0.30;;
36593;SDS011;22603;47.900;8.146;2023-11-21T01:47:44;3.97;;;0.80;;
36593;SDS011;22603;47.900;8.146;2023-11-21T01:50:31;0.40;;;0.40;;
36593;SDS011;22603;47.900;8.146;2023-11-21T01:53:18;0.47;;;0.40;;
36593;SDS011;22603;47.900;8.146;2023-11-21T01:56:05;0.20;;;0.20;;
36593;SDS011;22603;47.900;8.146;2023-11-21T01:58:55;0.20;;;0.20;;
36593;SDS011;22603;47.900;8.146;2023-11-21T02:01:42;0.23;;;0.23;;
36593;SDS011;22603;47.900;8.146;2023-11-21T02:04:31;0.50;;;0.40;;
36593;SDS011;22603;47.900;8.146;2023-11-21T02:07:19;0.30;;;0.30;;
36593;SDS011;22603;47.900;8.146;2023-11-21T02:10:08;0.20;;;0.20;;
36593;SDS011;22603;47.900;8.146;2023-11-21T02:13:00;0.30;;;0.30;;
36593;SDS011;22603;47.900;8.146;2023-11-21T02:15:49;0.20;;;0.20;;
36593;SDS011;22603;47.900;8.146;2023-11-21T02:18:39;0.20;;;0.20;;
36593;SDS011;22603;47.900;8.146;2023-11-21T02:21:27;0.30;;;0.30;;
36593;SDS011;22603;47.900;8.146;2023-11-21T02:24:16;0.30;;;0.30;;
36593;SDS011;22603;47.900;8.146;2023-11-21T02:27:04;0.30;;;0.30;;
36593;SDS011;22603;47.900;8.146;2023-11-21T02:29:51;0.20;;;0.20;;
36593;SDS011;22603;47.900;8.146;2023-11-21T02:32:39;0.20;;;0.20;;
36593;SDS011;22603;47.900;8.146;2023-11-21T02:35:33;0.30;;;0.30;;
36593;SDS011;22603;47.900;8.146;2023-11-21T02:38:20;0.47;;;0.40;;
36593;SDS011;22603;47.900;8.146;2023-11-21T02:41:08;0.20;;;0.20;;
36593;SDS011;22603;47.900;8.146;2023-11-21T02:43:55;0.30;;;0.30;;
36593;SDS011;22603;47.900;8.146;2023-11-21T02:46:42;0.20;;;0.20;;
36593;SDS011;22603;47.900;8.146;2023-11-21T02:49:29;0.30;;;0.30;;
36593;SDS011;22603;47.900;8.146;2023-11-21T02:52:16;0.20;;;0.20;;
36593;SDS011;22603;47.900;8.146;2023-11-21T02:55:04;0.30;;;0.30;;
36593;SDS011;22603;47.900;8.146;2023-11-21T02:57:54;0.30;;;0.30;;
36593;SDS011;22603;47.900;8.146;2023-11-21T03:00:42;0.30;;;0.30;;
36593;SDS011;22603;47.900;8.146;2023-11-21T03:03:28;0.30;;;0.30;;
36593;SDS011;22603;47.900;8.146;2023-11-21T03:06:16;0.77;;;0.50;;
36593;SDS011;22603;47.900;8.146;2023-11-21T03:09:03;0.43;;;0.33;;
36593;SDS011;22603;47.900;8.146;2023-11-21T03:11:51;4.03;;;0.43;;
36593;SDS011;22603;47.900;8.146;2023-11-21T03:14:39;0.20;;;0.20;;
36593;SDS011;22603;47.900;8.146;2023-11-21T03:17:27;0.23;;;0.23;;
36593;SDS011;22603;47.900;8.146;2023-11-21T03:20:14;0.70;;;0.20;;
36593;SDS011;22603;47.900;8.146;2023-11-21T03:23:01;0.20;;;0.20;;
36593;SDS011;22603;47.900;8.146;2023-11-21T03:25:50;2.37;;;0.30;;
36593;SDS011;22603;47.900;8.146;2023-11-21T03:28:37;1.07;;;0.30;;
36593;SDS011;22603;47.900;8.146;2023-11-21T03:31:25;0.30;;;0.30;;
36593;SDS011;22603;47.900;8.146;2023-11-21T03:34:14;0.20;;;0.20;;
36593;SDS011;22603;47.900;8.146;2023-11-21T03:37:03;0.20;;;0.20;;
36593;SDS011;22603;47.900;8.146;2023-11-21T03:39:50;0.20;;;0.20;;
36593;SDS011;22603;47.900;8.146;2023-11-21T03:42:36;0.30;;;0.30;;
36593;SDS011;22603;47.900;8.146;2023-11-21T03:45:23;0.27;;;0.27;;
36593;SDS011;22603;47.900;8.146;2023-11-21T03:48:11;0.60;;;0.23;;
36593;SDS011;22603;47.900;8.146;2023-11-21T03:50:58;0.27;;;0.27;;
36593;SDS011;22603;47.900;8.146;2023-11-21T03:53:45;0.67;;;0.30;;
36593;SDS011;22603;47.900;8.146;2023-11-21T03:56:32;0.20;;;0.20;;
36593;SDS011;22603;47.900;8.146;2023-11-21T03:59:19;0.20;;;0.20;;
36593;SDS011;22603;47.900;8.146;2023-11-21T06:20:56;0.20;;;0.20;;
36593;SDS011;22603;47.900;8.146;2023-11-21T06:24:37;0.40;;;0.40;;
36593;SDS011;22603;47.900;8.146;2023-11-21T06:27:29;0.30;;;0.30;;
36593;SDS011;22603;47.900;8.146;2023-11-21T06:30:19;0.30;;;0.30;;
36593;SDS011;22603;47.900;8.146;2023-11-21T06:33:12;0.37;;;0.37;;
36593;SDS011;22603;47.900;8.146;2023-11-21T06:36:13;0.73;;;0.50;;
36593;SDS011;22603;47.900;8.146;2023-11-21T06:39:35;0.43;;;0.37;;
36593;SDS011;22603;47.900;8.146;2023-11-21T06:43:11;2.40;;;0.60;;
36593;SDS011;22603;47.900;8.146;2023-11-21T08:07:33;1.73;;;0.80;;
36593;SDS011;22603;47.900;8.146;2023-11-21T08:20:07;3.83;;;1.30;;
36593;SDS011;22603;47.900;8.146;2023-11-21T08:22:57;1.43;;;0.83;;
36593;SDS011;22603;47.900;8.146;2023-11-21T08:25:45;3.47;;;1.20;;
36593;SDS011;22603;47.900;8.146;2023-11-21T08:28:32;4.43;;;1.30;;
36593;SDS011;22603;47.900;8.146;2023-11-21T08:31:23;1.83;;;0.90;;
36593;SDS011;22603;47.900;8.146;2023-11-21T08:34:11;2.50;;;1.27;;
36593;SDS011;22603;47.900;8.146;2023-11-21T08:37:00;3.37;;;1.77;;
36593;SDS011;22603;47.900;8.146;2023-11-21T08:39:47;3.20;;;1.30;;
36593;SDS011;22603;47.900;8.146;2023-11-21T08:42:34;3.40;;;0.97;;
36593;SDS011;22603;47.900;8.146;2023-11-21T08:45:21;1.40;;;0.60;;
36593;SDS011;22603;47.900;8.146;2023-11-21T08:48:08;2.70;;;1.00;;
36593;SDS011;22603;47.900;8.146;2023-11-21T08:50:57;3.00;;;1.20;;
36593;SDS011;22603;47.900;8.146;2023-11-21T08:53:46;1.63;;;0.90;;
36593;SDS011;22603;47.900;8.146;2023-11-21T08:56:33;2.30;;;1.10;;
36593;SDS011;22603;47.900;8.146;2023-11-21T08:59:20;1.80;;;0.90;;
36593;SDS011;22603;47.900;8.146;2023-11-21T09:02:06;1.63;;;0.90;;
36593;SDS011;22603;47.900;8.146;2023-11-21T09:04:53;2.03;;;1.00;;
36593;SDS011;22603;47.900;8.146;2023-11-21T09:07:40;3.50;;;1.33;;
36593;SDS011;22603;47.900;8.146;2023-11-21T09:10:29;2.17;;;0.97;;
36593;SDS011;22603;47.900;8.146;2023-11-21T09:13:17;2.60;;;1.07;;
36593;SDS011;22603;47.900;8.146;2023-11-21T09:16:05;1.77;;;0.97;;
36593;SDS011;22603;47.900;8.146;2023-11-21T09:18:53;2.27;;;0.97;;
36593;SDS011;22603;47.900;8.146;2023-11-21T09:21:40;0.87;;;0.70;;
36593;SDS011;22603;47.900;8.146;2023-11-21T09:24:27;2.00;;;1.10;;
36593;SDS011;22603;47.900;8.146;2023-11-21T09:27:15;0.50;;;0.50;;
36593;SDS011;22603;47.900;8.146;2023-11-21T09:30:02;2.47;;;1.20;;
36593;SDS011;22603;47.900;8.146;2023-11-21T09:32:50;2.17;;;0.93;;
36593;SDS011;22603;47.900;8.146;2023-11-21T09:35:37;2.20;;;0.90;;
36593;SDS011;22603;47.900;8.146;2023-11-21T09:38:25;1.20;;;0.80;;
36593;SDS011;22603;47.900;8.146;2023-11-21T09:41:15;1.93;;;0.87;;
36593;SDS011;22603;47.900;8.146;2023-11-21T09:44:26;2.27;;;1.00;;
36593;SDS011;22603;47.900;8.146;2023-11-21T09:47:19;1.03;;;0.80;;
36593;SDS011;22603;47.900;8.146;2023-11-21T09:50:06;1.17;;;0.70;;
36593;SDS011;22603;47.900;8.146;2023-11-21T09:52:57;3.70;;;1.00;;
36593;SDS011;22603;47.900;8.146;2023-11-21T09:56:00;1.27;;;0.80;;
36593;SDS011;22603;47.900;8.146;2023-11-21T09:58:47;1.50;;;0.70;;
36593;SDS011;22603;47.900;8.146;2023-11-21T10:01:39;1.03;;;0.60;;
36593;SDS011;22603;47.900;8.146;2023-11-21T10:04:28;1.20;;;0.70;;
36593;SDS011;22603;47.900;8.146;2023-11-21T10:07:15;1.20;;;0.80;;
36593;SDS011;22603;47.900;8.146;2023-11-21T10:10:05;0.93;;;0.60;;
36593;SDS011;22603;47.900;8.146;2023-11-21T10:12:54;1.43;;;0.60;;
36593;SDS011;22603;47.900;8.146;2023-11-21T10:15:43;0.43;;;0.43;;
36593;SDS011;22603;47.900;8.146;2023-11-21T10:18:35;0.60;;;0.50;;
36593;SDS011;22603;47.900;8.146;2023-11-21T10:21:24;1.63;;;0.70;;
36593;SDS011;22603;47.900;8.146;2023-11-21T10:24:13;0.83;;;0.60;;
36593;SDS011;22603;47.900;8.146;2023-11-21T10:27:00;1.10;;;0.70;;
36593;SDS011;22603;47.900;8.146;2023-11-21T10:29:48;1.57;;;0.70;;
36593;SDS011;22603;47.900;8.146;2023-11-21T10:32:37;1.17;;;0.70;;
36593;SDS011;22603;47.900;8.146;2023-11-21T10:35:27;1.50;;;0.90;;
36593;SDS011;22603;47.900;8.146;2023-11-21T10:38:25;1.70;;;0.80;;
36593;SDS011;22603;47.900;8.146;2023-11-21T10:41:14;2.90;;;0.80;;
36593;SDS011;22603;47.900;8.146;2023-11-21T10:44:01;1.20;;;0.90;;
36593;SDS011;22603;47.900;8.146;2023-11-21T10:46:51;3.17;;;1.23;;
36593;SDS011;22603;47.900;8.146;2023-11-21T10:49:41;3.40;;;1.33;;
36593;SDS011;22603;47.900;8.146;2023-11-21T10:52:30;3.10;;;1.07;;
36593;SDS011;22603;47.900;8.146;2023-11-21T10:55:17;1.80;;;0.90;;
36593;SDS011;22603;47.900;8.146;2023-11-21T10:58:06;2.13;;;1.07;;
36593;SDS011;22603;47.900;8.146;2023-11-21T11:00:55;1.57;;;0.90;;
36593;SDS011;22603;47.900;8.146;2023-11-21T11:03:43;2.60;;;1.00;;
36593;SDS011;22603;47.900;8.146;2023-11-21T11:06:30;1.67;;;1.00;;
36593;SDS011;22603;47.900;8.146;2023-11-21T11:09:19;2.50;;;1.20;;
36593;SDS011;22603;47.900;8.146;2023-11-21T11:12:06;8.93;;;2.40;;
36593;SDS011;22603;47.900;8.146;2023-11-21T11:14:54;3.97;;;1.60;;
36593;SDS011;22603;47.900;8.146;2023-11-21T11:17:42;3.03;;;1.20;;
36593;SDS011;22603;47.900;8.146;2023-11-21T11:20:33;2.03;;;0.73;;
36593;SDS011;22603;47.900;8.146;2023-11-21T11:23:30;1.13;;;0.73;;
36593;SDS011;22603;47.900;8.146;2023-11-21T11:26:28;1.20;;;0.80;;
36593;SDS011;22603;47.900;8.146;2023-11-21T11:29:26;0.83;;;0.60;;
36593;SDS011;22603;47.900;8.146;2023-11-21T11:32:21;0.93;;;0.77;;
36593;SDS011;22603;47.900;8.146;2023-11-21T11:35:29;1.90;;;0.80;;
36593;SDS011;22603;47.900;8.146;2023-11-21T11:38:21;0.53;;;0.50;;
36593;SDS011;22603;47.900;8.146;2023-11-21T11:41:08;1.67;;;0.60;;
36593;SDS011;22603;47.900;8.146;2023-11-21T11:44:00;1.10;;;0.63;;
36593;SDS011;22603;47.900;8.146;2023-11-21T11:46:47;1.10;;;0.70;;
36593;SDS011;22603;47.900;8.146;2023-11-21T11:49:34;1.17;;;0.70;;
36593;SDS011;22603;47.900;8.146;2023-11-21T11:52:31;1.03;;;0.63;;
36593;SDS011;22603;47.900;8.146;2023-11-21T11:55:26;0.83;;;0.53;;
36593;SDS011;22603;47.900;8.146;2023-11-21T11:58:18;1.33;;;0.53;;
36593;SDS011;22603;47.900;8.146;2023-11-21T12:01:07;0.70;;;0.60;;
36593;SDS011;22603;47.900;8.146;2023-11-21T12:07:20;0.53;;;0.53;;
36593;SDS011;22603;47.900;8.146;2023-11-21T12:10:07;0.83;;;0.60;;
36593;SDS011;22603;47.900;8.146;2023-11-21T12:12:57;0.30;;;0.30;;
36593;SDS011;22603;47.900;8.146;2023-11-21T12:15:46;0.40;;;0.40;;
36593;SDS011;22603;47.900;8.146;2023-11-21T12:18:35;0.40;;;0.40;;
36593;SDS011;22603;47.900;8.146;2023-11-21T12:21:23;1.00;;;0.50;;
36593;SDS011;22603;47.900;8.146;2023-11-21T12:24:10;0.43;;;0.40;;
36593;SDS011;22603;47.900;8.146;2023-11-21T12:27:02;1.50;;;0.53;;
36593;SDS011;22603;47.900;8.146;2023-11-21T12:29:50;0.63;;;0.50;;
36593;SDS011;22603;47.900;8.146;2023-11-21T12:32:38;0.40;;;0.40;;
36593;SDS011;22603;47.900;8.146;2023-11-21T12:35:28;0.30;;;0.30;;
36593;SDS011;22603;47.900;8.146;2023-11-21T12:38:19;0.20;;;0.20;;
36593;SDS011;22603;47.900;8.146;2023-11-21T12:41:09;0.40;;;0.40;;
36593;SDS011;22603;47.900;8.146;2023-11-21T12:43:56;0.23;;;0.23;;
36593;SDS011;22603;47.900;8.146;2023-11-21T12:46:44;0.40;;;0.40;;
36593;SDS011;22603;47.900;8.146;2023-11-21T12:49:33;0.30;;;0.30;;
36593;SDS011;22603;47.900;8.146;2023-11-21T12:52:22;0.20;;;0.20;;
36593;SDS011;22603;47.900;8.146;2023-11-21T12:55:12;0.30;;;0.30;;
36593;SDS011;22603;47.900;8.146;2023-11-21T12:58:01;0.30;;;0.30;;
36593;SDS011;22603;47.900;8.146;2023-11-21T13:00:55;0.33;;;0.33;;
36593;SDS011;22603;47.900;8.146;2023-11-21T13:03:46;0.83;;;0.40;;
36593;SDS011;22603;47.900;8.146;2023-11-21T13:06:36;0.20;;;0.20;;
36593;SDS011;22603;47.900;8.146;2023-11-21T13:09:27;0.30;;;0.30;;
36593;SDS011;22603;47.900;8.146;2023-11-21T13:12:15;0.30;;;0.30;;
36593;SDS011;22603;47.900;8.146;2023-11-21T13:15:04;1.10;;;0.60;;
36593;SDS011;22603;47.900;8.146;2023-11-21T13:17:52;0.23;;;0.23;;
36593;SDS011;22603;47.900;8.146;2023-11-21T13:20:40;0.30;;;0.30;;
36593;SDS011;22603;47.900;8.146;2023-11-21T13:23:28;0.30;;;0.30;;
36593;SDS011;22603;47.900;8.146;2023-11-21T13:26:22;0.30;;;0.30;;
36593;SDS011;22603;47.900;8.146;2023-11-21T13:29:10;0.50;;;0.40;;
36593;SDS011;22603;47.900;8.146;2023-11-21T13:31:58;0.43;;;0.30;;
36593;SDS011;22603;47.900;8.146;2023-11-21T13:34:45;0.30;;;0.30;;
36593;SDS011;22603;47.900;8.146;2023-11-21T13:37:32;0.50;;;0.43;;
36593;SDS011;22603;47.900;8.146;2023-11-21T13:40:20;0.30;;;0.30;;
36593;SDS011;22603;47.900;8.146;2023-11-21T13:43:13;0.80;;;0.30;;
36593;SDS011;22603;47.900;8.146;2023-11-21T13:46:00;0.50;;;0.50;;
36593;SDS011;22603;47.900;8.146;2023-11-21T13:48:53;0.87;;;0.40;;
36593;SDS011;22603;47.900;8.146;2023-11-21T13:51:42;0.50;;;0.50;;
36593;SDS011;22603;47.900;8.146;2023-11-21T13:54:30;0.50;;;0.50;;
36593;SDS011;22603;47.900;8.146;2023-11-21T13:57:17;1.23;;;0.50;;
36593;SDS011;22603;47.900;8.146;2023-11-21T14:00:08;1.03;;;0.60;;
36593;SDS011;22603;47.900;8.146;2023-11-21T14:03:11;1.27;;;0.57;;
36593;SDS011;22603;47.900;8.146;2023-11-21T14:06:06;1.33;;;0.60;;
36593;SDS011;22603;47.900;8.146;2023-11-21T14:08:59;1.70;;;0.60;;
36593;SDS011;22603;47.900;8.146;2023-11-21T14:11:50;1.33;;;0.67;;
36593;SDS011;22603;47.900;8.146;2023-11-21T14:14:38;0.43;;;0.43;;
36593;SDS011;22603;47.900;8.146;2023-11-21T14:17:26;0.40;;;0.40;;
36593;SDS011;22603;47.900;8.146;2023-11-21T14:20:14;0.87;;;0.50;;
36593;SDS011;22603;47.900;8.146;2023-11-21T14:23:06;1.93;;;0.77;;
36593;SDS011;22603;47.900;8.146;2023-11-21T14:25:53;3.37;;;0.80;;
36593;SDS011;22603;47.900;8.146;2023-11-21T14:28:44;1.63;;;0.80;;
36593;SDS011;22603;47.900;8.146;2023-11-21T14:31:33;2.27;;;0.90;;
36593;SDS011;22603;47.900;8.146;2023-11-21T14:34:28;0.77;;;0.50;;
36593;SDS011;22603;47.900;8.146;2023-11-21T14:37:16;0.47;;;0.47;;
36593;SDS011;22603;47.900;8.146;2023-11-21T14:40:06;1.53;;;0.60;;
36593;SDS011;22603;47.900;8.146;2023-11-21T14:42:54;0.50;;;0.50;;
36593;SDS011;22603;47.900;8.146;2023-11-21T14:45:43;0.77;;;0.60;;
36593;SDS011;22603;47.900;8.146;2023-11-21T14:48:29;2.50;;;0.90;;
36593;SDS011;22603;47.900;8.146;2023-11-21T14:51:29;0.73;;;0.57;;
36593;SDS011;22603;47.900;8.146;2023-11-21T14:54:17;1.43;;;0.60;;
36593;SDS011;22603;47.900;8.146;2023-11-21T14:57:12;2.13;;;0.88;;
36593;SDS011;22603;47.900;8.146;2023-11-21T15:00:03;1.73;;;1.00;;
36593;SDS011;22603;47.900;8.146;2023-11-21T15:02:55;9.93;;;2.77;;
36593;SDS011;22603;47.900;8.146;2023-11-21T15:05:42;0.93;;;0.70;;
36593;SDS011;22603;47.900;8.146;2023-11-21T15:08:30;3.47;;;0.80;;
36593;SDS011;22603;47.900;8.146;2023-11-21T15:11:17;2.47;;;0.87;;
36593;SDS011;22603;47.900;8.146;2023-11-21T15:14:04;1.73;;;0.80;;
36593;SDS011;22603;47.900;8.146;2023-11-21T15:16:53;3.03;;;1.07;;
36593;SDS011;22603;47.900;8.146;2023-11-21T15:19:44;1.13;;;0.73;;
36593;SDS011;22603;47.900;8.146;2023-11-21T15:22:31;1.30;;;0.73;;
36593;SDS011;22603;47.900;8.146;2023-11-21T15:25:19;1.97;;;1.00;;
36593;SDS011;22603;47.900;8.146;2023-11-21T15:28:06;0.67;;;0.67;;
36593;SDS011;22603;47.900;8.146;2023-11-21T15:30:53;2.10;;;0.97;;
36593;SDS011;22603;47.900;8.146;2023-11-21T15:33:42;2.37;;;0.90;;
36593;SDS011;22603;47.900;8.146;2023-11-21T15:36:29;1.87;;;1.00;;
36593;SDS011;22603;47.900;8.146;2023-11-21T15:39:15;1.27;;;0.83;;
36593;SDS011;22603;47.900;8.146;2023-11-21T15:42:05;3.20;;;1.30;;
36593;SDS011;22603;47.900;8.146;2023-11-21T15:44:52;2.27;;;1.20;;
36593;SDS011;22603;47.900;8.146;2023-11-21T15:47:38;2.80;;;0.98;;
36593;SDS011;22603;47.900;8.146;2023-11-21T15:50:25;2.23;;;1.33;;
36593;SDS011;22603;47.900;8.146;2023-11-21T15:53:12;2.30;;;1.17;;
36593;SDS011;22603;47.900;8.146;2023-11-21T15:56:00;4.13;;;1.50;;
36593;SDS011;22603;47.900;8.146;2023-11-21T15:58:54;2.87;;;1.10;;
36593;SDS011;22603;47.900;8.146;2023-11-21T16:01:41;2.97;;;1.17;;
36593;SDS011;22603;47.900;8.146;2023-11-21T16:04:32;3.07;;;1.20;;
36593;SDS011;22603;47.900;8.146;2023-11-21T16:07:21;1.80;;;1.17;;
36593;SDS011;22603;47.900;8.146;2023-11-21T16:10:08;1.87;;;1.00;;
36593;SDS011;22603;47.900;8.146;2023-11-21T16:12:57;1.90;;;1.10;;
36593;SDS011;22603;47.900;8.146;2023-11-21T16:15:45;3.13;;;1.20;;
36593;SDS011;22603;47.900;8.146;2023-11-21T16:18:36;3.57;;;1.03;;
36593;SDS011;22603;47.900;8.146;2023-11-21T16:21:22;3.07;;;1.17;;
36593;SDS011;22603;47.900;8.146;2023-11-21T16:24:09;2.73;;;1.17;;
36593;SDS011;22603;47.900;8.146;2023-11-21T16:26:56;2.43;;;1.40;;
36593;SDS011;22603;47.900;8.146;2023-11-21T16:29:43;3.73;;;1.47;;
36593;SDS011;22603;47.900;8.146;2023-11-21T16:32:32;3.37;;;1.50;;
36593;SDS011;22603;47.900;8.146;2023-11-21T16:35:20;4.00;;;1.43;;
36593;SDS011;22603;47.900;8.146;2023-11-21T16:38:07;2.50;;;1.10;;
36593;SDS011;22603;47.900;8.146;2023-11-21T16:40:54;2.37;;;1.27;;
36593;SDS011;22603;47.900;8.146;2023-11-21T16:43:41;3.27;;;1.70;;
36593;SDS011;22603;47.900;8.146;2023-11-21T16:46:27;6.43;;;2.23;;
36593;SDS011;22603;47.900;8.146;2023-11-21T16:49:15;4.13;;;2.23;;
36593;SDS011;22603;47.900;8.146;2023-11-21T16:52:03;4.03;;;1.93;;
36593;SDS011;22603;47.900;8.146;2023-11-21T16:54:52;8.30;;;2.60;;
36593;SDS011;22603;47.900;8.146;2023-11-21T16:57:39;6.67;;;2.37;;
36593;SDS011;22603;47.900;8.146;2023-11-21T17:00:26;6.23;;;2.80;;
36593;SDS011;22603;47.900;8.146;2023-11-21T17:03:12;6.23;;;2.23;;
36593;SDS011;22603;47.900;8.146;2023-11-21T17:06:01;3.97;;;1.93;;
36593;SDS011;22603;47.900;8.146;2023-11-21T17:08:50;6.77;;;2.97;;
36593;SDS011;22603;47.900;8.146;2023-11-21T17:11:37;6.10;;;2.03;;
36593;SDS011;22603;47.900;8.146;2023-11-21T17:14:24;5.33;;;2.27;;
36593;SDS011;22603;47.900;8.146;2023-11-21T17:17:11;5.20;;;2.37;;
36593;SDS011;22603;47.900;8.146;2023-11-21T17:19:59;5.23;;;2.13;;
36593;SDS011;22603;47.900;8.146;2023-11-21T17:22:51;7.63;;;2.40;;
36593;SDS011;22603;47.900;8.146;2023-11-21T17:25:40;10.82;;;3.38;;
36593;SDS011;22603;47.900;8.146;2023-11-21T17:28:27;7.67;;;2.73;;
36593;SDS011;22603;47.900;8.146;2023-11-21T17:31:14;7.57;;;2.83;;
36593;SDS011;22603;47.900;8.146;2023-11-21T17:34:02;6.47;;;2.47;;
36593;SDS011;22603;47.900;8.146;2023-11-21T17:36:49;6.73;;;2.90;;
36593;SDS011;22603;47.900;8.146;2023-11-21T17:39:37;8.47;;;3.00;;
36593;SDS011;22603;47.900;8.146;2023-11-21T17:42:24;10.80;;;3.30;;
36593;SDS011;22603;47.900;8.146;2023-11-21T17:45:13;9.63;;;3.43;;
36593;SDS011;22603;47.900;8.146;2023-11-21T17:48:00;14.33;;;4.17;;
36593;SDS011;22603;47.900;8.146;2023-11-21T17:50:48;10.13;;;3.47;;
36593;SDS011;22603;47.900;8.146;2023-11-21T17:53:34;8.10;;;2.50;;
36593;SDS011;22603;47.900;8.146;2023-11-21T17:56:23;9.27;;;3.57;;
36593;SDS011;22603;47.900;8.146;2023-11-21T17:59:10;7.03;;;2.43;;
36593;SDS011;22603;47.900;8.146;2023-11-21T18:02:01;7.53;;;2.50;;
36593;SDS011;22603;47.900;8.146;2023-11-21T18:04:48;6.80;;;2.30;;
36593;SDS011;22603;47.900;8.146;2023-11-21T18:07:37;7.70;;;2.67;;
36593;SDS011;22603;47.900;8.146;2023-11-21T18:10:24;8.30;;;3.00;;
36593;SDS011;22603;47.900;8.146;2023-11-21T18:13:18;6.40;;;2.47;;
36593;SDS011;22603;47.900;8.146;2023-11-21T18:16:06;6.73;;;2.70;;
36593;SDS011;22603;47.900;8.146;2023-11-21T18:22:05;14.43;;;5.67;;
36593;SDS011;22603;47.900;8.146;2023-11-21T18:33:19;1.77;;;1.00;;
36593;SDS011;22603;47.900;8.146;2023-11-21T18:36:09;4.43;;;1.40;;
36593;SDS011;22603;47.900;8.146;2023-11-21T18:38:58;1.73;;;0.80;;
